Time,TemperatureF,DewpointF,PressureIn,WindDirection,WindDirectionDegrees,WindSpeedMPH,WindSpeedGustMPH,Humidity,HourlyPrecipIn,Conditions,Clouds,dailyrainin,SolarRadiationWatts/m^2,SoftwareType,DateUTC
2013-01-16 00:00:00,37.5,36.7,30.14,North,9,0.0,4.0,97,0.03,,---,2.13,0.00,VWS V14.01,2013-01-16 05:00:00,
2013-01-16 00:01:00,37.5,36.7,30.13,North,9,0.0,4.0,97,0.03,,---,2.13,0.00,VWS V14.01,2013-01-16 05:01:00,
2013-01-16 00:06:00,37.5,36.7,30.13,North,9,0.0,0.0,97,0.02,,---,0.00,0.00,VWS V14.01,2013-01-16 05:06:00,
2013-01-16 00:11:00,37.5,36.7,30.13,North,9,0.0,2.0,97,0.03,,---,0.01,0.00,VWS V14.01,2013-01-16 05:11:00,
2013-01-16 00:16:00,37.5,36.7,30.13,SW,227,0.0,4.0,97,0.03,,---,0.01,0.00,VWS V14.01,2013-01-16 05:16:00,
2013-01-16 00:21:00,37.5,36.7,30.14,SW,229,1.0,4.0,97,0.03,,---,0.01,0.00,VWS V14.01,2013-01-16 05:21:00,
2013-01-16 00:26:00,37.5,36.7,30.13,West,260,0.0,4.0,97,0.03,,---,0.01,0.00,VWS V14.01,2013-01-16 05:26:00,
2013-01-16 00:30:00,37.5,36.7,30.13,West,260,0.0,4.0,97,0.03,,---,0.01,0.00,VWS V14.01,2013-01-16 05:30:00,
2013-01-16 00:31:00,37.5,36.7,30.13,West,260,0.0,4.0,97,0.03,,---,0.01,0.00,VWS V14.01,2013-01-16 05:31:00,
2013-01-16 00:36:00,37.5,36.7,30.13,West,259,0.0,1.0,97,0.02,,---,0.01,0.00,VWS V14.01,2013-01-16 05:36:00,
2013-01-16 00:42:00,37.6,36.8,30.13,West,265,0.0,1.0,97,0.02,,---,0.01,0.00,VWS V14.01,2013-01-16 05:42:00,
2013-01-16 00:47:00,37.6,36.8,30.12,NW,306,0.0,1.0,97,0.02,,---,0.01,0.00,VWS V14.01,2013-01-16 05:47:00,
2013-01-16 00:52:00,37.7,36.9,30.12,SW,235,0.0,2.0,97,0.02,,---,0.01,0.00,VWS V14.01,2013-01-16 05:52:00,
2013-01-16 00:57:00,37.7,36.9,30.12,SSE,157,0.0,2.0,97,0.02,,---,0.01,0.00,VWS V14.01,2013-01-16 05:57:00,
2013-01-16 01:00:00,37.8,37.0,30.12,West,273,0.0,3.0,97,0.02,,---,0.01,0.00,VWS V14.01,2013-01-16 06:00:00,
2013-01-16 01:02:00,37.8,37.0,30.12,West,273,0.0,3.0,97,0.02,,---,0.01,0.00,VWS V14.01,2013-01-16 06:02:00,
2013-01-16 01:07:00,37.8,37.0,30.12,South,184,1.0,4.0,97,0.01,,---,0.01,0.00,VWS V14.01,2013-01-16 06:07:00,
2013-01-16 01:12:00,37.8,37.0,30.12,SW,236,0.0,4.0,97,0.01,,---,0.01,0.00,VWS V14.01,2013-01-16 06:12:00,
2013-01-16 01:17:00,37.8,37.0,30.12,WNW,290,0.0,4.0,97,0.01,,---,0.01,0.00,VWS V14.01,2013-01-16 06:17:00,
2013-01-16 01:22:00,37.9,37.1,30.13,West,274,0.0,4.0,97,0.01,,---,0.01,0.00,VWS V14.01,2013-01-16 06:22:00,
2013-01-16 01:27:00,37.9,37.1,30.13,West,275,0.0,4.0,97,0.01,,---,0.01,0.00,VWS V14.01,2013-01-16 06:27:00,
2013-01-16 01:30:00,38.0,37.2,30.14,West,274,0.0,4.0,97,0.01,,---,0.01,0.00,VWS V14.01,2013-01-16 06:30:00,
2013-01-16 01:32:00,38.0,37.2,30.14,West,274,0.0,0.0,97,0.00,,---,0.01,0.00,VWS V14.01,2013-01-16 06:32:00,
2013-01-16 01:37:00,38.0,37.2,30.14,West,274,0.0,2.0,97,0.00,,---,0.01,0.00,VWS V14.01,2013-01-16 06:37:00,
2013-01-16 01:42:00,38.0,37.2,30.14,West,274,0.0,2.0,97,0.00,,---,0.01,0.00,VWS V14.01,2013-01-16 06:42:00,
2013-01-16 01:47:00,38.0,37.2,30.14,West,274,0.0,2.0,97,0.01,,---,0.02,0.00,VWS V14.01,2013-01-16 06:47:00,
2013-01-16 01:52:00,38.0,37.2,30.13,West,274,0.0,2.0,97,0.01,,---,0.02,0.00,VWS V14.01,2013-01-16 06:52:00,
2013-01-16 01:58:00,38.0,37.2,30.13,West,274,0.0,2.0,97,0.02,,---,0.03,0.00,VWS V14.01,2013-01-16 06:58:00,
2013-01-16 02:00:00,38.0,37.2,30.14,West,274,1.0,2.0,97,0.04,,---,0.05,0.00,VWS V14.01,2013-01-16 07:00:00,
2013-01-16 02:03:00,38.0,37.2,30.14,West,274,1.0,3.0,97,0.05,,---,0.06,0.00,VWS V14.01,2013-01-16 07:03:00,
2013-01-16 02:08:00,38.0,37.2,30.14,WNW,290,0.0,3.0,97,0.08,,---,0.09,0.00,VWS V14.01,2013-01-16 07:08:00,
2013-01-16 02:13:00,38.1,37.3,30.13,WNW,297,0.0,3.0,97,0.11,,---,0.12,0.00,VWS V14.01,2013-01-16 07:13:00,
2013-01-16 02:18:00,38.1,37.3,30.13,South,190,0.0,3.0,97,0.14,,---,0.15,0.00,VWS V14.01,2013-01-16 07:18:00,
2013-01-16 02:23:00,38.2,37.4,30.12,South,188,0.0,3.0,97,0.17,,---,0.18,0.00,VWS V14.01,2013-01-16 07:23:00,
2013-01-16 02:28:00,38.3,37.5,30.12,ESE,105,0.0,4.0,97,0.18,,---,0.19,0.00,VWS V14.01,2013-01-16 07:28:00,
2013-01-16 02:30:00,38.4,37.6,30.11,North,355,2.0,4.0,97,0.18,,---,0.19,0.00,VWS V14.01,2013-01-16 07:30:00,
2013-01-16 02:33:00,38.4,37.6,30.12,North,355,0.0,3.0,97,0.18,,---,0.19,0.00,VWS V14.01,2013-01-16 07:33:00,
2013-01-16 02:38:00,38.6,37.8,30.11,WSW,258,0.0,3.0,97,0.19,,---,0.20,0.00,VWS V14.01,2013-01-16 07:38:00,
2013-01-16 02:43:00,38.7,37.9,30.10,WSW,238,0.0,3.0,97,0.19,,---,0.20,0.00,VWS V14.01,2013-01-16 07:43:00,
2013-01-16 02:48:00,38.9,38.1,30.11,WSW,238,0.0,3.0,97,0.20,,---,0.21,0.00,VWS V14.01,2013-01-16 07:48:00,
2013-01-16 02:53:00,39.1,38.3,30.12,WSW,258,0.0,4.0,97,0.20,,---,0.21,0.00,VWS V14.01,2013-01-16 07:53:00,
2013-01-16 02:58:00,39.2,38.4,30.11,WSW,258,0.0,4.0,97,0.20,,---,0.21,0.00,VWS V14.01,2013-01-16 07:58:00,
2013-01-16 03:00:00,39.1,38.3,30.11,WSW,258,0.0,4.0,97,0.20,,---,0.21,0.00,VWS V14.01,2013-01-16 08:00:00,
2013-01-16 03:04:00,39.1,38.3,30.10,WSW,258,0.0,0.0,97,0.16,,---,0.21,0.00,VWS V14.01,2013-01-16 08:04:00,
2013-01-16 03:09:00,39.1,38.3,30.10,WSW,258,0.0,2.0,97,0.16,,---,0.21,0.00,VWS V14.01,2013-01-16 08:09:00,
2013-01-16 03:14:00,39.2,38.4,30.10,WSW,258,0.0,2.0,97,0.16,,---,0.21,0.00,VWS V14.01,2013-01-16 08:14:00,
2013-01-16 03:19:00,39.3,38.5,30.09,WSW,258,2.0,3.0,97,0.16,,---,0.21,0.00,VWS V14.01,2013-01-16 08:19:00,
2013-01-16 03:24:00,39.3,38.5,30.10,West,259,0.0,4.0,97,0.16,,---,0.21,0.00,VWS V14.01,2013-01-16 08:24:00,
2013-01-16 03:29:00,39.3,38.5,30.09,West,259,0.0,4.0,97,0.16,,---,0.21,0.00,VWS V14.01,2013-01-16 08:29:00,
2013-01-16 03:30:00,39.3,38.5,30.09,West,259,0.0,4.0,97,0.16,,---,0.21,0.00,VWS V14.01,2013-01-16 08:30:00,
2013-01-16 03:34:00,39.3,38.5,30.09,West,259,0.0,0.0,97,0.02,,---,0.21,0.00,VWS V14.01,2013-01-16 08:34:00,
2013-01-16 03:39:00,39.4,38.6,30.08,West,259,0.0,1.0,97,0.02,,---,0.21,0.00,VWS V14.01,2013-01-16 08:39:00,
2013-01-16 03:44:00,39.5,38.7,30.08,West,259,0.0,1.0,97,0.02,,---,0.21,0.00,VWS V14.01,2013-01-16 08:44:00,
2013-01-16 03:49:00,39.6,38.8,30.08,West,259,1.0,1.0,97,0.02,,---,0.21,0.00,VWS V14.01,2013-01-16 08:49:00,
2013-01-16 03:54:00,39.7,38.9,30.08,West,259,0.0,2.0,97,0.02,,---,0.21,0.00,VWS V14.01,2013-01-16 08:54:00,
2013-01-16 03:59:00,39.9,39.1,30.08,West,259,0.0,3.0,97,0.02,,---,0.21,0.00,VWS V14.01,2013-01-16 08:59:00,
2013-01-16 04:00:00,39.9,39.1,30.08,West,269,0.0,3.0,97,0.02,,---,0.21,0.00,VWS V14.01,2013-01-16 09:00:00,
2013-01-16 04:04:00,40.0,39.2,30.08,West,269,0.0,2.0,97,0.00,,---,0.21,0.00,VWS V14.01,2013-01-16 09:04:00,
2013-01-16 04:09:00,40.1,39.3,30.09,West,269,0.0,2.0,97,0.00,,---,0.21,0.00,VWS V14.01,2013-01-16 09:09:00,
2013-01-16 04:14:00,40.2,39.4,30.08,West,269,0.0,2.0,97,0.00,,---,0.21,0.00,VWS V14.01,2013-01-16 09:14:00,
2013-01-16 04:19:00,40.3,39.5,30.08,West,269,0.0,2.0,97,0.00,,---,0.21,0.00,VWS V14.01,2013-01-16 09:19:00,
2013-01-16 04:24:00,40.4,39.9,30.08,West,269,0.0,2.0,98,0.00,,---,0.21,0.00,VWS V14.01,2013-01-16 09:24:00,
2013-01-16 04:29:00,40.4,39.6,30.07,West,269,0.0,2.0,97,0.00,,---,0.21,0.00,VWS V14.01,2013-01-16 09:29:00,
2013-01-16 04:30:00,40.4,39.6,30.07,West,269,0.0,2.0,97,0.00,,---,0.21,0.00,VWS V14.01,2013-01-16 09:30:00,
2013-01-16 04:34:00,40.5,39.7,30.07,NW,305,2.0,2.0,97,0.00,,---,0.21,0.00,VWS V14.01,2013-01-16 09:34:00,
2013-01-16 04:39:00,40.5,39.7,30.07,NW,309,0.0,2.0,97,0.00,,---,0.21,0.00,VWS V14.01,2013-01-16 09:39:00,
2013-01-16 04:44:00,40.6,39.8,30.07,SSW,204,0.0,3.0,97,0.00,,---,0.21,0.00,VWS V14.01,2013-01-16 09:44:00,
2013-01-16 04:49:00,40.8,40.0,30.07,WNW,289,0.0,3.0,97,0.01,,---,0.22,0.00,VWS V14.01,2013-01-16 09:49:00,
2013-01-16 04:54:00,40.9,40.4,30.07,SSE,153,0.0,3.0,98,0.01,,---,0.22,0.00,VWS V14.01,2013-01-16 09:54:00,
2013-01-16 04:59:00,41.1,40.6,30.07,SW,229,0.0,3.0,98,0.01,,---,0.22,0.00,VWS V14.01,2013-01-16 09:59:00,
2013-01-16 05:00:00,41.2,40.7,30.06,WSW,252,0.0,3.0,98,0.02,,---,0.23,0.00,VWS V14.01,2013-01-16 10:00:00,
2013-01-16 05:04:00,41.2,40.7,30.06,WSW,252,0.0,0.0,98,0.02,,---,0.23,0.00,VWS V14.01,2013-01-16 10:04:00,
2013-01-16 05:09:00,41.2,40.4,30.06,WSW,253,0.0,0.0,97,0.02,,---,0.23,0.00,VWS V14.01,2013-01-16 10:09:00,
2013-01-16 05:14:00,41.2,40.4,30.07,WSW,253,0.0,0.0,97,0.02,,---,0.23,0.00,VWS V14.01,2013-01-16 10:14:00,
2013-01-16 05:20:00,41.2,40.4,30.06,West,273,0.0,1.0,97,0.02,,---,0.23,0.00,VWS V14.01,2013-01-16 10:20:00,
2013-01-16 05:25:00,41.2,40.4,30.06,NW,309,0.0,1.0,97,0.03,,---,0.24,0.00,VWS V14.01,2013-01-16 10:25:00,
2013-01-16 05:30:00,41.2,40.4,30.06,NW,309,0.0,1.0,97,0.03,,---,0.24,0.00,VWS V14.01,2013-01-16 10:30:00,
2013-01-16 05:35:00,41.3,40.5,30.06,South,178,0.0,3.0,97,0.03,,---,0.24,0.00,VWS V14.01,2013-01-16 10:35:00,
2013-01-16 05:40:00,41.5,41.0,30.05,South,178,0.0,3.0,98,0.04,,---,0.25,0.00,VWS V14.01,2013-01-16 10:40:00,
2013-01-16 05:45:00,41.8,41.3,30.05,South,178,0.0,3.0,98,0.04,,---,0.25,0.00,VWS V14.01,2013-01-16 10:45:00,
2013-01-16 05:50:00,42.0,41.5,30.06,West,265,3.0,5.0,98,0.04,,---,0.25,0.00,VWS V14.01,2013-01-16 10:50:00,
2013-01-16 05:55:00,42.3,41.8,30.06,WSW,240,0.0,5.0,98,0.04,,---,0.25,0.00,VWS V14.01,2013-01-16 10:55:00,
2013-01-16 06:00:00,42.5,42.0,30.06,West,281,0.0,5.0,98,0.05,,---,0.26,0.00,VWS V14.01,2013-01-16 11:00:00,
2013-01-16 06:05:00,42.5,42.0,30.05,WNW,283,0.0,2.0,98,0.04,,---,0.27,0.00,VWS V14.01,2013-01-16 11:05:00,
2013-01-16 06:10:00,42.5,42.0,30.05,WNW,283,0.0,2.0,98,0.04,,---,0.27,0.00,VWS V14.01,2013-01-16 11:10:00,
2013-01-16 06:15:00,42.5,42.0,30.06,WNW,283,0.0,2.0,98,0.04,,---,0.27,0.00,VWS V14.01,2013-01-16 11:15:00,
2013-01-16 06:20:00,42.5,42.0,30.05,WNW,283,0.0,2.0,98,0.04,,---,0.27,0.00,VWS V14.01,2013-01-16 11:20:00,
2013-01-16 06:25:00,42.5,42.0,30.06,WNW,292,0.0,4.0,98,0.04,,---,0.27,0.00,VWS V14.01,2013-01-16 11:25:00,
2013-01-16 06:30:00,42.4,41.9,30.06,WNW,292,0.0,4.0,98,0.04,,---,0.27,0.00,VWS V14.01,2013-01-16 11:30:00,
2013-01-16 06:35:00,42.3,41.8,30.06,WNW,292,0.0,0.0,98,0.03,,---,0.27,0.00,VWS V14.01,2013-01-16 11:35:00,
2013-01-16 06:40:00,42.4,41.9,30.05,WNW,290,0.0,2.0,98,0.03,,---,0.27,0.00,VWS V14.01,2013-01-16 11:40:00,
2013-01-16 06:45:00,42.5,42.0,30.05,WNW,290,0.0,2.0,98,0.03,,---,0.27,0.00,VWS V14.01,2013-01-16 11:45:00,
2013-01-16 06:50:00,42.6,42.1,30.05,NW,311,0.0,2.0,98,0.03,,---,0.27,0.00,VWS V14.01,2013-01-16 11:50:00,
2013-01-16 06:55:00,43.0,42.5,30.05,SSE,154,2.0,6.0,98,0.03,,---,0.27,0.00,VWS V14.01,2013-01-16 11:55:00,
2013-01-16 07:00:00,43.7,43.2,30.05,SSE,168,0.0,6.0,98,0.03,,---,0.27,0.00,VWS V14.01,2013-01-16 12:00:00,
2013-01-16 07:05:00,44.0,43.5,30.05,SSE,165,1.0,4.0,98,0.01,,---,0.27,0.00,VWS V14.01,2013-01-16 12:05:00,
2013-01-16 07:10:00,44.1,43.6,30.05,North,355,2.0,4.0,98,0.01,,---,0.27,0.00,VWS V14.01,2013-01-16 12:10:00,
2013-01-16 07:15:00,44.2,43.7,30.05,South,183,2.0,5.0,98,0.01,,---,0.27,0.00,VWS V14.01,2013-01-16 12:15:00,
2013-01-16 07:20:00,44.1,43.6,30.04,SSE,155,2.0,6.0,98,0.01,,---,0.27,0.00,VWS V14.01,2013-01-16 12:20:00,
2013-01-16 07:25:00,44.1,43.6,30.05,South,187,0.0,6.0,98,0.01,,---,0.27,0.00,VWS V14.01,2013-01-16 12:25:00,
2013-01-16 07:30:00,44.0,43.5,30.06,South,175,0.0,6.0,98,0.01,,---,0.27,0.00,VWS V14.01,2013-01-16 12:30:00,
2013-01-16 07:35:00,44.0,43.5,30.06,South,188,0.0,4.0,98,0.00,,---,0.27,0.00,VWS V14.01,2013-01-16 12:35:00,
2013-01-16 07:40:00,44.0,43.5,30.05,SE,144,0.0,5.0,98,0.00,,---,0.27,5.00,VWS V14.01,2013-01-16 12:40:00,
2013-01-16 07:45:00,43.8,43.3,30.06,SSE,159,1.0,5.0,98,0.00,,---,0.27,7.00,VWS V14.01,2013-01-16 12:45:00,
2013-01-16 07:50:00,43.7,43.2,30.07,South,171,0.0,5.0,98,0.00,,---,0.27,14.00,VWS V14.01,2013-01-16 12:50:00,
2013-01-16 07:55:00,43.7,43.2,30.07,South,171,2.0,6.0,98,0.00,,---,0.27,7.00,VWS V14.01,2013-01-16 12:55:00,
2013-01-16 08:00:00,43.7,43.2,30.08,West,267,0.0,11.0,98,0.00,,---,0.27,5.00,VWS V14.01,2013-01-16 13:00:00,
2013-01-16 08:05:00,43.7,43.2,30.08,NNW,332,2.0,2.0,98,0.00,,---,0.27,7.00,VWS V14.01,2013-01-16 13:05:00,
2013-01-16 08:10:00,43.6,43.1,30.08,East,93,0.0,4.0,98,0.00,,---,0.27,7.00,VWS V14.01,2013-01-16 13:10:00,
2013-01-16 08:15:00,43.4,42.9,30.09,East,93,0.0,4.0,98,0.01,,---,0.28,5.00,VWS V14.01,2013-01-16 13:15:00,
2013-01-16 08:20:00,42.9,42.1,30.11,West,266,4.0,5.0,97,0.01,,---,0.28,0.00,VWS V14.01,2013-01-16 13:20:00,
2013-01-16 08:25:00,42.4,41.6,30.13,WNW,290,0.0,6.0,97,0.02,,---,0.29,7.00,VWS V14.01,2013-01-16 13:25:00,
2013-01-16 08:30:00,42.2,41.4,30.14,WNW,296,0.0,6.0,97,0.04,,---,0.31,9.00,VWS V14.01,2013-01-16 13:30:00,
2013-01-16 08:35:00,42.0,41.2,30.14,NW,309,0.0,1.0,97,0.05,,---,0.32,9.00,VWS V14.01,2013-01-16 13:35:00,
2013-01-16 08:40:00,41.9,41.1,30.12,ESE,114,0.0,4.0,97,0.06,,---,0.33,19.00,VWS V14.01,2013-01-16 13:40:00,
2013-01-16 08:45:00,41.8,41.0,30.11,ESE,114,0.0,4.0,97,0.07,,---,0.34,28.00,VWS V14.01,2013-01-16 13:45:00,
2013-01-16 08:50:00,41.7,40.9,30.11,ESE,114,0.0,4.0,97,0.07,,---,0.34,35.00,VWS V14.01,2013-01-16 13:50:00,
2013-01-16 08:55:00,41.7,40.9,30.11,ESE,114,0.0,4.0,97,0.08,,---,0.35,53.00,VWS V14.01,2013-01-16 13:55:00,
2013-01-16 09:00:00,41.8,41.0,30.12,ESE,114,0.0,4.0,97,0.08,,---,0.35,60.00,VWS V14.01,2013-01-16 14:00:00,
2013-01-16 09:05:00,41.8,41.0,30.12,ESE,114,0.0,0.0,97,0.08,,---,0.35,26.00,VWS V14.01,2013-01-16 14:05:00,
2013-01-16 09:10:00,41.9,41.1,30.12,ESE,114,0.0,0.0,97,0.08,,---,0.35,26.00,VWS V14.01,2013-01-16 14:10:00,
2013-01-16 09:15:00,42.0,41.5,30.12,ESE,114,0.0,0.0,98,0.08,,---,0.35,67.00,VWS V14.01,2013-01-16 14:15:00,
2013-01-16 09:20:00,42.2,41.7,30.12,ESE,114,0.0,0.0,98,0.08,,---,0.35,84.00,VWS V14.01,2013-01-16 14:20:00,
2013-01-16 09:25:00,42.5,42.0,30.13,ESE,108,0.0,0.0,98,0.08,,---,0.35,67.00,VWS V14.01,2013-01-16 14:25:00,
2013-01-16 09:30:00,42.7,42.2,30.13,ESE,114,0.0,0.0,98,0.09,,---,0.36,58.00,VWS V14.01,2013-01-16 14:30:00,
2013-01-16 09:35:00,42.9,42.4,30.14,ESE,114,0.0,0.0,98,0.05,,---,0.36,46.00,VWS V14.01,2013-01-16 14:35:00,
2013-01-16 09:40:00,43.1,42.6,30.13,ESE,114,0.0,0.0,98,0.05,,---,0.36,44.00,VWS V14.01,2013-01-16 14:40:00,
2013-01-16 09:45:00,43.2,42.7,30.13,ESE,114,0.0,0.0,98,0.05,,---,0.36,63.00,VWS V14.01,2013-01-16 14:45:00,
2013-01-16 09:50:00,43.3,42.8,30.14,ESE,114,0.0,0.0,98,0.06,,---,0.37,54.00,VWS V14.01,2013-01-16 14:50:00,
2013-01-16 09:55:00,43.5,43.0,30.14,ESE,114,0.0,0.0,98,0.06,,---,0.37,84.00,VWS V14.01,2013-01-16 14:55:00,
2013-01-16 10:00:00,43.7,43.2,30.14,ESE,114,0.0,1.0,98,0.06,,---,0.37,90.00,VWS V14.01,2013-01-16 15:00:00,
2013-01-16 10:05:00,43.9,43.4,30.14,ESE,114,0.0,0.0,98,0.02,,---,0.37,120.00,VWS V14.01,2013-01-16 15:05:00,
2013-01-16 10:10:00,44.1,43.6,30.14,ESE,114,0.0,0.0,98,0.02,,---,0.37,54.00,VWS V14.01,2013-01-16 15:10:00,
2013-01-16 10:15:00,44.2,43.7,30.14,ESE,114,0.0,0.0,98,0.02,,---,0.37,47.00,VWS V14.01,2013-01-16 15:15:00,
2013-01-16 10:20:00,44.3,43.8,30.14,ESE,114,0.0,0.0,98,0.02,,---,0.37,65.00,VWS V14.01,2013-01-16 15:20:00,
2013-01-16 10:25:00,44.4,43.9,30.13,ESE,114,0.0,0.0,98,0.02,,---,0.37,95.00,VWS V14.01,2013-01-16 15:25:00,
2013-01-16 10:30:00,44.6,44.1,30.12,ESE,114,0.0,1.0,98,0.02,,---,0.37,179.00,VWS V14.01,2013-01-16 15:30:00,
2013-01-16 10:35:00,44.8,44.3,30.13,ESE,114,0.0,0.0,98,0.01,,---,0.37,95.00,VWS V14.01,2013-01-16 15:35:00,
2013-01-16 10:40:00,45.0,44.5,30.13,ESE,112,0.0,0.0,98,0.01,,---,0.37,114.00,VWS V14.01,2013-01-16 15:40:00,
2013-01-16 10:45:00,45.2,44.7,30.13,ESE,114,0.0,0.0,98,0.01,,---,0.37,72.00,VWS V14.01,2013-01-16 15:45:00,
2013-01-16 10:50:00,45.3,44.8,30.12,ESE,114,0.0,0.0,98,0.01,,---,0.37,155.00,VWS V14.01,2013-01-16 15:50:00,
2013-01-16 10:55:00,45.6,45.1,30.12,ESE,114,0.0,1.0,98,0.01,,---,0.37,107.00,VWS V14.01,2013-01-16 15:55:00,
2013-01-16 11:00:00,45.8,45.3,30.12,ESE,114,0.0,1.0,98,0.01,,---,0.37,54.00,VWS V14.01,2013-01-16 16:00:00,
2013-01-16 11:05:00,45.9,45.4,30.12,ESE,114,0.0,0.0,98,0.00,,---,0.37,72.00,VWS V14.01,2013-01-16 16:05:00,
2013-01-16 11:10:00,46.0,45.5,30.10,ESE,114,0.0,0.0,98,0.00,,---,0.37,135.00,VWS V14.01,2013-01-16 16:10:00,
2013-01-16 11:15:00,46.2,45.7,30.10,ESE,114,0.0,0.0,98,0.00,,---,0.37,118.00,VWS V14.01,2013-01-16 16:15:00,
2013-01-16 11:20:00,46.5,46.2,30.09,ESE,114,0.0,0.0,99,0.00,,---,0.37,132.00,VWS V14.01,2013-01-16 16:20:00,
2013-01-16 11:25:00,46.9,46.4,30.08,ESE,114,0.0,0.0,98,0.00,,---,0.37,241.00,VWS V14.01,2013-01-16 16:25:00,
2013-01-16 11:30:00,47.7,47.2,30.09,ESE,114,0.0,0.0,98,0.00,,---,0.37,258.00,VWS V14.01,2013-01-16 16:30:00,
2013-01-16 11:35:00,48.6,48.3,30.08,SW,221,0.0,1.0,99,0.00,,---,0.37,192.00,VWS V14.01,2013-01-16 16:35:00,
2013-01-16 11:40:00,48.8,48.5,30.08,SW,228,0.0,3.0,99,0.00,,---,0.37,107.00,VWS V14.01,2013-01-16 16:40:00,
2013-01-16 11:45:00,48.9,48.6,30.08,SW,221,0.0,3.0,99,0.00,,---,0.37,88.00,VWS V14.01,2013-01-16 16:45:00,
2013-01-16 11:50:00,48.8,48.5,30.08,SW,228,0.0,3.0,99,0.00,,---,0.37,90.00,VWS V14.01,2013-01-16 16:50:00,
2013-01-16 11:55:00,48.8,48.5,30.08,WSW,237,0.0,3.0,99,0.00,,---,0.37,83.00,VWS V14.01,2013-01-16 16:55:00,
2013-01-16 12:00:00,49.0,48.7,30.08,SW,227,0.0,4.0,99,0.00,,---,0.37,84.00,VWS V14.01,2013-01-16 17:00:00,
2013-01-16 12:05:00,49.1,48.8,30.08,South,187,0.0,4.0,99,0.00,,---,0.37,70.00,VWS V14.01,2013-01-16 17:05:00,
2013-01-16 12:10:00,49.1,48.8,30.07,South,188,0.0,4.0,99,0.00,,---,0.37,72.00,VWS V14.01,2013-01-16 17:10:00,
2013-01-16 12:15:00,49.2,48.9,30.06,South,188,0.0,4.0,99,0.00,,---,0.37,70.00,VWS V14.01,2013-01-16 17:15:00,
2013-01-16 12:20:00,49.2,48.9,30.06,SSE,162,0.0,4.0,99,0.00,,---,0.37,58.00,VWS V14.01,2013-01-16 17:20:00,
2013-01-16 12:25:00,49.3,49.0,30.05,SW,222,0.0,4.0,99,0.00,,---,0.37,69.00,VWS V14.01,2013-01-16 17:25:00,
2013-01-16 12:30:00,49.4,49.1,30.04,SW,232,0.0,4.0,99,0.00,,---,0.37,77.00,VWS V14.01,2013-01-16 17:30:00,
2013-01-16 12:35:00,49.5,49.2,30.04,SW,232,0.0,0.0,99,0.00,,---,0.37,114.00,VWS V14.01,2013-01-16 17:35:00,
2013-01-16 12:40:00,49.7,49.4,30.04,SSE,162,0.0,4.0,99,0.00,,---,0.37,229.00,VWS V14.01,2013-01-16 17:40:00,
2013-01-16 12:45:00,50.1,49.8,30.04,South,173,0.0,4.0,99,0.00,,---,0.37,165.00,VWS V14.01,2013-01-16 17:45:00,
2013-01-16 12:50:00,50.6,50.3,30.03,NE,55,2.0,4.0,99,0.00,,---,0.37,130.00,VWS V14.01,2013-01-16 17:50:00,
2013-01-16 12:55:00,50.8,50.5,30.02,SSW,198,0.0,5.0,99,0.00,,---,0.37,95.00,VWS V14.01,2013-01-16 17:55:00,
2013-01-16 13:00:00,50.8,50.5,30.03,SE,128,0.0,5.0,99,0.00,,---,0.37,149.00,VWS V14.01,2013-01-16 18:00:00,
2013-01-16 13:05:00,51.0,50.7,30.02,ESE,117,3.0,3.0,99,0.00,,---,0.37,216.00,VWS V14.01,2013-01-16 18:05:00,
2013-01-16 13:10:00,51.2,50.9,30.02,SE,134,0.0,3.0,99,0.00,,---,0.37,114.00,VWS V14.01,2013-01-16 18:10:00,
2013-01-16 13:15:00,51.3,51.0,30.02,SSE,166,2.0,5.0,99,0.00,,---,0.37,109.00,VWS V14.01,2013-01-16 18:15:00,
2013-01-16 13:20:00,51.3,51.0,30.02,SE,126,0.0,5.0,99,0.00,,---,0.37,97.00,VWS V14.01,2013-01-16 18:20:00,
2013-01-16 13:25:00,51.3,51.0,30.02,SSE,157,0.0,5.0,99,0.00,,---,0.37,90.00,VWS V14.01,2013-01-16 18:25:00,
2013-01-16 13:30:00,51.3,51.0,30.03,East,96,0.0,5.0,99,0.00,,---,0.37,86.00,VWS V14.01,2013-01-16 18:30:00,
2013-01-16 13:35:00,51.3,51.0,30.02,SSE,166,0.0,9.0,99,0.00,,---,0.37,111.00,VWS V14.01,2013-01-16 18:35:00,
2013-01-16 13:41:00,51.4,51.1,30.02,SSE,157,1.0,9.0,99,0.00,,---,0.37,123.00,VWS V14.01,2013-01-16 18:41:00,
2013-01-16 13:46:00,51.5,51.2,30.03,SE,130,1.0,9.0,99,0.00,,---,0.37,109.00,VWS V14.01,2013-01-16 18:46:00,
2013-01-16 13:51:00,51.5,51.2,30.03,SSE,163,0.0,9.0,99,0.00,,---,0.37,105.00,VWS V14.01,2013-01-16 18:51:00,
2013-01-16 13:56:00,51.5,51.0,30.03,SSE,153,0.0,9.0,98,0.00,,---,0.37,190.00,VWS V14.01,2013-01-16 18:56:00,
2013-01-16 14:00:00,51.8,51.3,30.03,SSE,155,0.0,9.0,98,0.00,,---,0.37,197.00,VWS V14.01,2013-01-16 19:00:00,
2013-01-16 14:01:00,51.7,51.2,30.03,SSE,155,0.0,9.0,98,0.00,,---,0.37,193.00,VWS V14.01,2013-01-16 19:01:00,
2013-01-16 14:06:00,51.9,51.4,30.03,ESE,123,0.0,4.0,98,0.00,,---,0.37,343.00,VWS V14.01,2013-01-16 19:06:00,
2013-01-16 14:11:00,52.2,51.7,30.03,SE,125,0.0,4.0,98,0.00,,---,0.37,295.00,VWS V14.01,2013-01-16 19:11:00,
2013-01-16 14:16:00,52.8,52.2,30.03,WSW,244,0.0,4.0,98,0.00,,---,0.37,510.00,VWS V14.01,2013-01-16 19:16:00,
2013-01-16 14:21:00,53.6,52.8,30.03,SW,217,0.0,5.0,97,0.00,,---,0.37,513.00,VWS V14.01,2013-01-16 19:21:00,
2013-01-16 14:26:00,54.6,53.5,30.03,ESE,105,0.0,5.0,96,0.00,,---,0.37,262.00,VWS V14.01,2013-01-16 19:26:00,
2013-01-16 14:30:00,55.0,53.6,30.03,South,171,2.0,5.0,95,0.00,,---,0.37,213.00,VWS V14.01,2013-01-16 19:30:00,
2013-01-16 14:31:00,54.9,53.5,30.03,South,180,0.0,5.0,95,0.00,,---,0.37,229.00,VWS V14.01,2013-01-16 19:31:00,
2013-01-16 14:36:00,55.0,53.3,30.04,SSE,164,0.0,5.0,94,0.00,,---,0.37,181.00,VWS V14.01,2013-01-16 19:36:00,
2013-01-16 14:41:00,55.1,53.1,30.03,SSE,167,0.0,5.0,93,0.00,,---,0.37,199.00,VWS V14.01,2013-01-16 19:41:00,
2013-01-16 14:46:00,55.5,53.2,30.04,SSE,157,0.0,5.0,92,0.00,,---,0.37,501.00,VWS V14.01,2013-01-16 19:46:00,
2013-01-16 14:51:00,55.9,53.3,30.03,SSE,157,0.0,5.0,91,0.00,,---,0.37,186.00,VWS V14.01,2013-01-16 19:51:00,
2013-01-16 14:56:00,55.9,53.0,30.03,SSE,157,0.0,5.0,90,0.00,,---,0.37,290.00,VWS V14.01,2013-01-16 19:56:00,
2013-01-16 15:00:00,55.9,53.0,30.03,SSE,157,0.0,5.0,90,0.00,,---,0.37,192.00,VWS V14.01,2013-01-16 20:00:00,
2013-01-16 15:01:00,55.9,53.0,30.03,SSE,157,0.0,5.0,90,0.00,,---,0.37,178.00,VWS V14.01,2013-01-16 20:01:00,
2013-01-16 15:06:00,56.1,53.2,30.04,SSE,157,0.0,0.0,90,0.00,,---,0.37,192.00,VWS V14.01,2013-01-16 20:06:00,
2013-01-16 15:11:00,56.4,53.2,30.04,SSE,157,0.0,0.0,89,0.00,,---,0.37,90.00,VWS V14.01,2013-01-16 20:11:00,
2013-01-16 15:16:00,56.5,53.0,30.05,SSE,157,0.0,0.0,88,0.00,,---,0.37,114.00,VWS V14.01,2013-01-16 20:16:00,
2013-01-16 15:21:00,56.6,53.1,30.05,SSE,157,0.0,0.0,88,0.00,,---,0.37,107.00,VWS V14.01,2013-01-16 20:21:00,
2013-01-16 15:26:00,56.7,53.2,30.05,SSE,157,0.0,0.0,88,0.00,,---,0.37,53.00,VWS V14.01,2013-01-16 20:26:00,
2013-01-16 15:30:00,56.9,53.4,30.04,SSE,157,0.0,0.0,88,0.00,,---,0.37,62.00,VWS V14.01,2013-01-16 20:30:00,
2013-01-16 15:31:00,56.8,53.3,30.04,SSE,151,0.0,0.0,88,0.00,,---,0.37,67.00,VWS V14.01,2013-01-16 20:31:00,
2013-01-16 15:36:00,56.9,53.1,30.04,SSE,157,0.0,1.0,87,0.00,,---,0.37,51.00,VWS V14.01,2013-01-16 20:36:00,
2013-01-16 15:41:00,57.0,53.2,30.04,SSE,157,0.0,1.0,87,0.00,,---,0.37,60.00,VWS V14.01,2013-01-16 20:41:00,
2013-01-16 15:46:00,57.1,53.3,30.04,SSE,157,0.0,1.0,87,0.00,,---,0.37,56.00,VWS V14.01,2013-01-16 20:46:00,
2013-01-16 15:51:00,57.2,53.4,30.04,SSE,157,0.0,1.0,87,0.00,,---,0.37,46.00,VWS V14.01,2013-01-16 20:51:00,
2013-01-16 15:56:00,57.2,53.7,30.04,SSE,157,0.0,1.0,88,0.00,,---,0.37,26.00,VWS V14.01,2013-01-16 20:56:00,
2013-01-16 16:00:00,57.2,53.7,30.04,SSE,157,0.0,1.0,88,0.00,,---,0.37,14.00,VWS V14.01,2013-01-16 21:00:00,
2013-01-16 16:01:00,57.2,53.7,30.04,SSE,157,0.0,1.0,88,0.00,,---,0.37,19.00,VWS V14.01,2013-01-16 21:01:00,
2013-01-16 16:06:00,57.2,53.7,30.05,SSE,157,0.0,1.0,88,0.00,,---,0.37,23.00,VWS V14.01,2013-01-16 21:06:00,
2013-01-16 16:11:00,56.9,52.4,30.05,SW,226,0.0,5.0,85,0.00,,---,0.37,23.00,VWS V14.01,2013-01-16 21:11:00,
2013-01-16 16:16:00,56.7,51.3,30.05,SSW,204,4.0,5.0,82,0.00,,---,0.37,12.00,VWS V14.01,2013-01-16 21:16:00,
2013-01-16 16:21:00,56.5,50.1,30.05,WSW,237,0.0,9.0,79,0.00,,---,0.37,12.00,VWS V14.01,2013-01-16 21:21:00,
2013-01-16 16:26:00,56.4,49.6,30.05,SSW,200,0.0,9.0,78,0.00,,---,0.37,14.00,VWS V14.01,2013-01-16 21:26:00,
2013-01-16 16:30:00,56.4,50.0,30.05,SSW,200,0.0,9.0,79,0.00,,---,0.37,18.00,VWS V14.01,2013-01-16 21:30:00,
2013-01-16 16:31:00,56.4,50.0,30.05,SSW,200,0.0,9.0,79,0.00,,---,0.37,18.00,VWS V14.01,2013-01-16 21:31:00,
2013-01-16 16:36:00,56.3,49.9,30.05,SSW,200,0.0,1.0,79,0.00,,---,0.37,14.00,VWS V14.01,2013-01-16 21:36:00,
2013-01-16 16:41:00,56.2,49.8,30.05,South,184,0.0,3.0,79,0.00,,---,0.37,9.00,VWS V14.01,2013-01-16 21:41:00,
2013-01-16 16:46:00,56.0,49.2,30.05,SSW,207,4.0,7.0,78,0.00,,---,0.37,11.00,VWS V14.01,2013-01-16 21:46:00,
2013-01-16 16:51:00,55.9,48.8,30.05,SSW,210,0.0,7.0,77,0.00,,---,0.37,18.00,VWS V14.01,2013-01-16 21:51:00,
2013-01-16 16:56:00,55.8,48.7,30.05,SW,222,0.0,7.0,77,0.00,,---,0.37,9.00,VWS V14.01,2013-01-16 21:56:00,
2013-01-16 17:00:00,55.8,48.7,30.05,SW,218,0.0,7.0,77,0.00,,---,0.37,11.00,VWS V14.01,2013-01-16 22:00:00,
2013-01-16 17:01:00,55.8,48.7,30.05,SW,218,0.0,7.0,77,0.00,,---,0.37,11.00,VWS V14.01,2013-01-16 22:01:00,
2013-01-16 17:06:00,55.7,48.6,30.05,SSW,209,1.0,3.0,77,0.00,,---,0.37,9.00,VWS V14.01,2013-01-16 22:06:00,
2013-01-16 17:12:00,55.6,48.9,30.05,SSW,209,0.0,3.0,78,0.00,,---,0.37,5.00,VWS V14.01,2013-01-16 22:12:00,
2013-01-16 17:17:00,55.5,48.8,30.06,SSW,209,0.0,3.0,78,0.00,,---,0.37,5.00,VWS V14.01,2013-01-16 22:17:00,
2013-01-16 17:22:00,55.4,49.0,30.06,SSW,196,0.0,4.0,79,0.00,,---,0.37,0.00,VWS V14.01,2013-01-16 22:22:00,
2013-01-16 17:27:00,55.2,48.8,30.06,SSW,196,1.0,4.0,79,0.00,,---,0.37,0.00,VWS V14.01,2013-01-16 22:27:00,
2013-01-16 17:30:00,55.1,48.7,30.05,South,175,0.0,4.0,79,0.00,,---,0.37,0.00,VWS V14.01,2013-01-16 22:30:00,
2013-01-16 17:32:00,55.1,48.7,30.05,South,175,0.0,4.0,79,0.00,,---,0.37,0.00,VWS V14.01,2013-01-16 22:32:00,
2013-01-16 17:37:00,55.0,49.0,30.05,SSE,157,0.0,4.0,80,0.00,,---,0.37,0.00,VWS V14.01,2013-01-16 22:37:00,
2013-01-16 17:42:00,54.9,48.9,30.05,South,185,0.0,4.0,80,0.00,,---,0.37,0.00,VWS V14.01,2013-01-16 22:42:00,
2013-01-16 17:47:00,54.8,48.8,30.06,South,182,0.0,4.0,80,0.00,,---,0.37,0.00,VWS V14.01,2013-01-16 22:47:00,
2013-01-16 17:52:00,54.8,48.8,30.06,South,180,3.0,4.0,80,0.00,,---,0.37,0.00,VWS V14.01,2013-01-16 22:52:00,
2013-01-16 17:57:00,54.7,48.7,30.06,SSW,208,2.0,4.0,80,0.00,,---,0.37,0.00,VWS V14.01,2013-01-16 22:57:00,
2013-01-16 18:00:00,54.6,48.9,30.06,SW,215,0.0,5.0,81,0.00,,---,0.37,0.00,VWS V14.01,2013-01-16 23:00:00,
2013-01-16 18:02:00,54.6,48.9,30.06,SW,215,0.0,5.0,81,0.00,,---,0.37,0.00,VWS V14.01,2013-01-16 23:02:00,
2013-01-16 18:07:00,54.6,48.9,30.06,South,174,3.0,6.0,81,0.00,,---,0.37,0.00,VWS V14.01,2013-01-16 23:07:00,
2013-01-16 18:12:00,54.5,48.8,30.06,South,178,0.0,10.0,81,0.00,,---,0.37,0.00,VWS V14.01,2013-01-16 23:12:00,
2013-01-16 18:17:00,54.4,49.0,30.06,South,184,0.0,10.0,82,0.00,,---,0.37,0.00,VWS V14.01,2013-01-16 23:17:00,
2013-01-16 18:22:00,54.3,48.9,30.06,South,185,1.0,10.0,82,0.00,,---,0.37,0.00,VWS V14.01,2013-01-16 23:22:00,
2013-01-16 18:27:00,54.2,48.8,30.06,South,177,0.0,10.0,82,0.00,,---,0.37,0.00,VWS V14.01,2013-01-16 23:27:00,
2013-01-16 18:30:00,54.2,49.2,30.06,South,177,0.0,10.0,83,0.00,,---,0.37,0.00,VWS V14.01,2013-01-16 23:30:00,
2013-01-16 18:32:00,54.1,49.1,30.06,South,178,4.0,4.0,83,0.00,,---,0.37,0.00,VWS V14.01,2013-01-16 23:32:00,
2013-01-16 18:37:00,54.1,49.4,30.06,SSW,200,2.0,4.0,84,0.00,,---,0.37,0.00,VWS V14.01,2013-01-16 23:37:00,
2013-01-16 18:42:00,54.1,49.4,30.06,SSW,199,0.0,4.0,84,0.00,,---,0.37,0.00,VWS V14.01,2013-01-16 23:42:00,
2013-01-16 18:47:00,54.0,49.3,30.06,SSW,199,0.0,4.0,84,0.00,,---,0.37,0.00,VWS V14.01,2013-01-16 23:47:00,
2013-01-16 18:52:00,53.9,49.2,30.06,SSW,199,0.0,4.0,84,0.00,,---,0.37,0.00,VWS V14.01,2013-01-16 23:52:00,
2013-01-16 18:57:00,53.8,49.4,30.07,SSW,199,0.0,4.0,85,0.00,,---,0.37,0.00,VWS V14.01,2013-01-16 23:57:00,
2013-01-16 19:00:00,53.7,49.3,30.07,SSW,199,0.0,4.0,85,0.00,,---,0.37,0.00,VWS V14.01,2013-01-17 00:00:00,
2013-01-16 19:02:00,53.7,49.3,30.07,SSW,199,0.0,0.0,85,0.00,,---,0.37,0.00,VWS V14.01,2013-01-17 00:02:00,
2013-01-16 19:07:00,53.5,49.4,30.07,SSW,199,0.0,0.0,86,0.00,,---,0.37,0.00,VWS V14.01,2013-01-17 00:07:00,
2013-01-16 19:12:00,53.2,49.4,30.07,SSW,199,0.0,0.0,87,0.00,,---,0.37,0.00,VWS V14.01,2013-01-17 00:12:00,
2013-01-16 19:17:00,53.0,49.2,30.07,SSW,199,0.0,0.0,87,0.01,,---,0.38,0.00,VWS V14.01,2013-01-17 00:17:00,
2013-01-16 19:22:00,52.8,49.3,30.08,SW,225,0.0,1.0,88,0.01,,---,0.38,0.00,VWS V14.01,2013-01-17 00:22:00,
2013-01-16 19:27:00,52.6,49.5,30.08,SW,225,0.0,1.0,89,0.01,,---,0.38,0.00,VWS V14.01,2013-01-17 00:27:00,
2013-01-16 19:30:00,52.4,49.3,30.08,SW,225,0.0,1.0,89,0.01,,---,0.38,0.00,VWS V14.01,2013-01-17 00:30:00,
2013-01-16 19:32:00,52.4,49.3,30.08,SW,225,0.0,0.0,89,0.01,,---,0.38,0.00,VWS V14.01,2013-01-17 00:32:00,
2013-01-16 19:37:00,52.3,49.2,30.09,SW,225,0.0,0.0,89,0.01,,---,0.38,0.00,VWS V14.01,2013-01-17 00:37:00,
2013-01-16 19:42:00,52.2,49.4,30.08,SW,225,0.0,0.0,90,0.01,,---,0.38,0.00,VWS V14.01,2013-01-17 00:42:00,
2013-01-16 19:47:00,52.0,49.2,30.09,SW,225,0.0,0.0,90,0.01,,---,0.38,0.00,VWS V14.01,2013-01-17 00:47:00,
2013-01-16 19:52:00,51.9,49.4,30.09,SW,229,0.0,0.0,91,0.01,,---,0.38,0.00,VWS V14.01,2013-01-17 00:52:00,
2013-01-16 19:57:00,51.8,49.3,30.08,SW,229,0.0,0.0,91,0.01,,---,0.38,0.00,VWS V14.01,2013-01-17 00:57:00,
2013-01-16 20:00:00,51.6,49.1,30.09,SW,229,0.0,0.0,91,0.01,,---,0.38,0.00,VWS V14.01,2013-01-17 01:00:00,
2013-01-16 20:02:00,51.6,49.1,30.08,SW,229,0.0,0.0,91,0.01,,---,0.38,0.00,VWS V14.01,2013-01-17 01:02:00,
2013-01-16 20:07:00,51.5,49.3,30.08,SW,229,0.0,0.0,92,0.01,,---,0.38,0.00,VWS V14.01,2013-01-17 01:07:00,
2013-01-16 20:12:00,51.4,49.2,30.08,SW,229,0.0,0.0,92,0.01,,---,0.38,0.00,VWS V14.01,2013-01-17 01:12:00,
2013-01-16 20:17:00,51.3,49.1,30.08,SW,229,0.0,0.0,92,0.01,,---,0.38,0.00,VWS V14.01,2013-01-17 01:17:00,
2013-01-16 20:22:00,51.2,49.2,30.07,SW,229,0.0,0.0,93,0.01,,---,0.38,0.00,VWS V14.01,2013-01-17 01:22:00,
2013-01-16 20:27:00,51.1,49.2,30.08,SW,229,0.0,0.0,93,0.01,,---,0.38,0.00,VWS V14.01,2013-01-17 01:27:00,
2013-01-16 20:30:00,51.0,49.0,30.08,SW,229,0.0,0.0,93,0.01,,---,0.38,0.00,VWS V14.01,2013-01-17 01:30:00,
2013-01-16 20:32:00,51.0,49.0,30.08,SW,229,0.0,0.0,93,0.00,,---,0.38,0.00,VWS V14.01,2013-01-17 01:32:00,
2013-01-16 20:37:00,50.9,49.0,30.07,SW,229,0.0,1.0,93,0.00,,---,0.38,0.00,VWS V14.01,2013-01-17 01:37:00,
2013-01-16 20:42:00,50.8,48.8,30.06,SW,223,0.0,1.0,93,0.00,,---,0.38,0.00,VWS V14.01,2013-01-17 01:42:00,
2013-01-16 20:47:00,50.7,48.8,30.07,SW,223,0.0,1.0,93,0.00,,---,0.38,0.00,VWS V14.01,2013-01-17 01:47:00,
2013-01-16 20:52:00,50.6,48.7,30.07,SW,223,0.0,1.0,93,0.00,,---,0.38,0.00,VWS V14.01,2013-01-17 01:52:00,
2013-01-16 20:57:00,50.6,48.9,30.07,SW,223,0.0,1.0,94,0.00,,---,0.38,0.00,VWS V14.01,2013-01-17 01:57:00,
2013-01-16 21:00:00,50.5,48.8,30.07,SW,223,0.0,1.0,94,0.00,,---,0.38,0.00,VWS V14.01,2013-01-17 02:00:00,
2013-01-16 21:02:00,50.5,48.8,30.07,SW,223,0.0,0.0,94,0.00,,---,0.38,0.00,VWS V14.01,2013-01-17 02:02:00,
2013-01-16 21:07:00,50.5,48.8,30.08,SW,223,0.0,0.0,94,0.00,,---,0.38,0.00,VWS V14.01,2013-01-17 02:07:00,
2013-01-16 21:12:00,50.5,48.8,30.07,SW,223,0.0,0.0,94,0.00,,---,0.38,0.00,VWS V14.01,2013-01-17 02:12:00,
2013-01-16 21:17:00,50.4,48.7,30.06,SW,223,0.0,0.0,94,0.00,,---,0.38,0.00,VWS V14.01,2013-01-17 02:17:00,
2013-01-16 21:22:00,50.3,48.6,30.06,SW,223,0.0,0.0,94,0.00,,---,0.38,0.00,VWS V14.01,2013-01-17 02:22:00,
2013-01-16 21:27:00,50.3,48.6,30.06,SW,223,0.0,0.0,94,0.00,,---,0.38,0.00,VWS V14.01,2013-01-17 02:27:00,
2013-01-16 21:30:00,50.3,48.6,30.05,SW,223,0.0,0.0,94,0.00,,---,0.38,0.00,VWS V14.01,2013-01-17 02:30:00,
2013-01-16 21:32:00,50.3,48.6,30.05,SW,223,0.0,0.0,94,0.00,,---,0.38,0.00,VWS V14.01,2013-01-17 02:32:00,
2013-01-16 21:37:00,50.2,48.5,30.05,SW,223,0.0,0.0,94,0.00,,---,0.38,0.00,VWS V14.01,2013-01-17 02:37:00,
2013-01-16 21:42:00,50.2,48.8,30.05,SW,223,0.0,0.0,95,0.00,,---,0.38,0.00,VWS V14.01,2013-01-17 02:42:00,
2013-01-16 21:47:00,50.1,48.7,30.05,SW,223,0.0,0.0,95,0.00,,---,0.38,0.00,VWS V14.01,2013-01-17 02:47:00,
2013-01-16 21:52:00,50.1,48.7,30.06,SW,223,0.0,0.0,95,0.00,,---,0.38,0.00,VWS V14.01,2013-01-17 02:52:00,
2013-01-16 21:57:00,50.1,48.7,30.07,SW,223,0.0,0.0,95,0.00,,---,0.38,0.00,VWS V14.01,2013-01-17 02:57:00,
2013-01-16 22:00:00,50.1,48.7,30.06,SW,223,0.0,0.0,95,0.00,,---,0.38,0.00,VWS V14.01,2013-01-17 03:00:00,
2013-01-16 22:02:00,50.1,48.7,30.06,SW,223,0.0,0.0,95,0.00,,---,0.38,0.00,VWS V14.01,2013-01-17 03:02:00,
2013-01-16 22:07:00,50.0,48.6,30.06,SW,223,0.0,0.0,95,0.00,,---,0.38,0.00,VWS V14.01,2013-01-17 03:07:00,
2013-01-16 22:12:00,50.0,48.6,30.06,SW,223,0.0,0.0,95,0.00,,---,0.38,0.00,VWS V14.01,2013-01-17 03:12:00,
2013-01-16 22:17:00,49.9,48.5,30.06,SW,223,0.0,0.0,95,0.00,,---,0.38,0.00,VWS V14.01,2013-01-17 03:17:00,
2013-01-16 22:22:00,49.9,48.5,30.06,SW,223,0.0,0.0,95,0.00,,---,0.38,0.00,VWS V14.01,2013-01-17 03:22:00,
2013-01-16 22:28:00,49.8,48.4,30.06,SW,223,0.0,0.0,95,0.00,,---,0.38,0.00,VWS V14.01,2013-01-17 03:28:00,
2013-01-16 22:30:00,49.8,48.4,30.07,SW,223,0.0,0.0,95,0.00,,---,0.38,0.00,VWS V14.01,2013-01-17 03:30:00,
2013-01-16 22:33:00,49.8,48.4,30.07,SW,223,0.0,0.0,95,0.00,,---,0.38,0.00,VWS V14.01,2013-01-17 03:33:00,
2013-01-16 22:38:00,49.8,48.4,30.07,SW,223,0.0,0.0,95,0.00,,---,0.38,0.00,VWS V14.01,2013-01-17 03:38:00,
2013-01-16 22:43:00,49.8,48.4,30.06,SW,223,0.0,0.0,95,0.01,,---,0.39,0.00,VWS V14.01,2013-01-17 03:43:00,
2013-01-16 22:48:00,49.8,48.4,30.05,SW,223,0.0,1.0,95,0.01,,---,0.39,0.00,VWS V14.01,2013-01-17 03:48:00,
2013-01-16 22:53:00,49.7,48.3,30.04,SW,223,0.0,1.0,95,0.01,,---,0.39,0.00,VWS V14.01,2013-01-17 03:53:00,
2013-01-16 22:58:00,49.7,48.3,30.05,SW,223,0.0,1.0,95,0.01,,---,0.39,0.00,VWS V14.01,2013-01-17 03:58:00,
2013-01-16 23:00:00,49.6,48.2,30.05,SW,223,0.0,1.0,95,0.01,,---,0.39,0.00,VWS V14.01,2013-01-17 04:00:00,
2013-01-16 23:03:00,49.6,48.2,30.05,SW,223,0.0,0.0,95,0.01,,---,0.39,0.00,VWS V14.01,2013-01-17 04:03:00,
2013-01-16 23:08:00,49.6,48.2,30.05,SW,223,0.0,0.0,95,0.01,,---,0.39,0.00,VWS V14.01,2013-01-17 04:08:00,
2013-01-16 23:13:00,49.6,48.2,30.05,SW,223,0.0,0.0,95,0.01,,---,0.39,0.00,VWS V14.01,2013-01-17 04:13:00,
2013-01-16 23:18:00,49.6,48.5,30.04,SW,223,0.0,0.0,96,0.01,,---,0.39,0.00,VWS V14.01,2013-01-17 04:18:00,
2013-01-16 23:23:00,49.6,48.5,30.05,SW,223,0.0,0.0,96,0.01,,---,0.39,0.00,VWS V14.01,2013-01-17 04:23:00,
2013-01-16 23:28:00,49.6,48.5,30.05,SW,223,0.0,0.0,96,0.01,,---,0.39,0.00,VWS V14.01,2013-01-17 04:28:00,
2013-01-16 23:30:00,49.6,48.2,30.05,SW,223,0.0,0.0,95,0.01,,---,0.39,0.00,VWS V14.01,2013-01-17 04:30:00,
2013-01-16 23:33:00,49.6,48.2,30.05,SW,223,0.0,0.0,95,0.01,,---,0.39,0.00,VWS V14.01,2013-01-17 04:33:00,
2013-01-16 23:38:00,49.5,48.1,30.06,SW,223,0.0,0.0,95,0.01,,---,0.39,0.00,VWS V14.01,2013-01-17 04:38:00,
2013-01-16 23:43:00,49.6,48.2,30.06,SW,223,0.0,0.0,95,0.01,,---,0.39,0.00,VWS V14.01,2013-01-17 04:43:00,
2013-01-16 23:48:00,49.5,48.1,30.06,SW,223,0.0,0.0,95,0.01,,---,0.39,0.00,VWS V14.01,2013-01-17 04:48:00,
2013-01-16 23:53:00,49.5,48.1,30.06,SW,223,0.0,0.0,95,0.01,,---,0.39,0.00,VWS V14.01,2013-01-17 04:53:00,
2013-01-16 23:59:00,49.4,48.3,30.06,SW,223,0.0,0.0,96,0.01,,---,0.39,0.00,VWS V14.01,2013-01-17 04:59:00,